Weather at Los Galleguitos East Airport

Public forecast

Using degrees Celsius for public forecast. Weather courtesy of forecast.io.

Closest aviation weather report (METAR) to Los Galleguitos East Airport

Closest report is Abel Santamaria Airport, 65.4 nm (121.1 km) NW. Retrieved 2021/06/13 15:50 UTC (47 minutes ago):

MUSC 131550Z 17005KT 130V220 9000 SCT020 BKN060 30/22 Q1016

Closest aviation forecast (TAF) to Los Galleguitos East Airport

Forecast is more than 12 hours old.

Closest forecast is Abel Santamaria Airport, 65.4 nm (121.1 km) NW. Retrieved 2021/01/30 18:00 UTC (4 months ago):

TAF MUSC 301700Z 3018/3118 10015KT 9000 SCT030 BECMG 3101/3103 VRB03KT BECMG 3115/3117 13010KT